createdAt,value
2022-10-18T00:01:41.470Z,101500.15
2022-10-18T00:02:50.994Z,101512.02
2022-10-18T00:04:01.788Z,101514.71
2022-10-18T00:05:10.316Z,101505.70
2022-10-18T00:06:20.113Z,101510.14
2022-10-18T00:08:45.477Z,101505.15
2022-10-18T00:09:55.262Z,101502.81
2022-10-18T00:11:04.804Z,101506.23
2022-10-18T00:12:13.927Z,101508.69
2022-10-18T00:14:40.556Z,101491.51
2022-10-18T00:15:51.856Z,101493.64
2022-10-18T00:18:16.717Z,101490.41
2022-10-18T00:19:29.253Z,101490.17
2022-10-18T00:20:38.603Z,101499.02
2022-10-18T00:21:51.983Z,101491.48
2022-10-18T00:23:00.592Z,101485.61
2022-10-18T00:25:26.214Z,101488.25
2022-10-18T00:26:41.368Z,101496.50
2022-10-18T00:27:50.631Z,101491.08
2022-10-18T00:30:18.810Z,101491.03
2022-10-18T00:32:52.917Z,101481.73
2022-10-18T00:35:22.316Z,101481.33
2022-10-18T00:37:49.660Z,101478.23
2022-10-18T00:38:58.595Z,101476.89
2022-10-18T00:40:09.059Z,101475.05
2022-10-18T00:41:24.179Z,101468.25
2022-10-18T00:46:41.467Z,101471.33
2022-10-18T00:49:37.725Z,101462.31
2022-10-18T00:50:49.076Z,101470.77
2022-10-18T00:52:01.883Z,101462.70
2022-10-18T00:53:16.387Z,101471.63
2022-10-18T00:55:42.655Z,101466.42
2022-10-18T00:58:08.938Z,101461.34
2022-10-18T01:00:37.242Z,101458.81
2022-10-18T01:03:02.816Z,101453.59
2022-10-18T01:05:30.322Z,101451.34
2022-10-18T01:09:43.973Z,101444.20
2022-10-18T01:12:44.589Z,101441.68
2022-10-18T01:17:18.178Z,101443.56
2022-10-18T01:20:27.989Z,101441.11
2022-10-18T01:23:11.838Z,101445.30
2022-10-18T01:26:12.707Z,101441.44
2022-10-18T01:29:19.732Z,101435.97
2022-10-18T01:32:02.888Z,101435.81
2022-10-18T01:34:39.797Z,101433.04
2022-10-18T01:37:12.756Z,101429.41
2022-10-18T01:38:25.519Z,101429.95
2022-10-18T01:39:39.916Z,101423.71
2022-10-18T01:40:50.734Z,101425.62
2022-10-18T01:42:01.053Z,101416.91
2022-10-18T01:44:31.703Z,101418.78
2022-10-18T01:47:06.669Z,101421.79
2022-10-18T01:48:17.225Z,101419.55
2022-10-18T01:50:42.753Z,101413.08
2022-10-18T01:53:25.469Z,101411.41
2022-10-18T01:56:10.166Z,101412.30
2022-10-18T01:59:08.548Z,101409.89
2022-10-18T02:01:46.835Z,101408.72
2022-10-18T02:04:36.700Z,101403.73
2022-10-18T02:07:29.790Z,101404.52
2022-10-18T02:10:12.940Z,101393.84
2022-10-18T02:11:30.096Z,101405.36
2022-10-18T02:12:48.527Z,101398.23
2022-10-18T02:14:02.669Z,101394.96
2022-10-18T02:15:20.423Z,101392.01
2022-10-18T02:18:07.323Z,101387.48
2022-10-18T02:20:53.089Z,101388.91
2022-10-18T02:22:03.016Z,101382.00
2022-10-18T02:24:40.069Z,101371.52
2022-10-18T02:25:50.643Z,101373.70
2022-10-18T02:27:00.526Z,101377.05
2022-10-18T02:29:24.909Z,101373.26
2022-10-18T02:32:21.289Z,101370.24
2022-10-18T02:33:55.554Z,101373.59
2022-10-18T02:35:10.877Z,101381.34
2022-10-18T02:37:50.814Z,101376.02
2022-10-18T02:40:22.201Z,101371.67
2022-10-18T02:42:53.196Z,101377.62
2022-10-18T02:44:01.967Z,101378.73
2022-10-18T02:45:11.904Z,101377.88
2022-10-18T02:46:22.081Z,101376.78
2022-10-18T02:47:32.180Z,101383.24
2022-10-18T02:51:25.008Z,101385.11
2022-10-18T02:53:48.543Z,101369.84
2022-10-18T02:54:57.733Z,101380.67
2022-10-18T02:57:22.765Z,101363.89
2022-10-18T02:58:31.855Z,101369.73
2022-10-18T03:00:59.162Z,101353.51
2022-10-18T03:03:23.359Z,101353.76
2022-10-18T03:05:52.280Z,101355.43
2022-10-18T03:07:01.922Z,101351.36
2022-10-18T03:08:11.636Z,101349.93
2022-10-18T03:09:21.900Z,101347.77
2022-10-18T03:10:30.939Z,101346.67
2022-10-18T03:11:41.601Z,101342.63
2022-10-18T03:13:02.574Z,101341.35
2022-10-18T03:14:12.282Z,101336.26
2022-10-18T03:15:20.976Z,101342.45
2022-10-18T03:16:30.380Z,101337.15
2022-10-18T03:17:38.955Z,101341.94
2022-10-18T03:20:08.376Z,101336.34
2022-10-18T03:22:39.443Z,101329.14
2022-10-18T03:23:48.637Z,101331.86
2022-10-18T03:24:57.699Z,101334.23
2022-10-18T03:27:21.753Z,101328.09
2022-10-18T03:28:32.543Z,101331.05
2022-10-18T03:29:41.317Z,101336.22
2022-10-18T03:30:50.540Z,101333.81
2022-10-18T03:33:14.627Z,101326.77
2022-10-18T03:35:38.248Z,101333.66
2022-10-18T03:38:13.074Z,101326.69
2022-10-18T03:39:22.772Z,101337.73
2022-10-18T03:40:32.713Z,101339.75
2022-10-18T03:43:04.453Z,101334.23
2022-10-18T03:45:31.477Z,101337.42
2022-10-18T03:47:56.330Z,101332.88
2022-10-18T03:50:20.606Z,101333.81
2022-10-18T03:52:45.565Z,101329.80
2022-10-18T03:54:07.380Z,101332.59
2022-10-18T03:56:33.036Z,101321.83
2022-10-18T03:57:47.987Z,101324.74
2022-10-18T03:58:57.600Z,101326.64
2022-10-18T04:00:08.491Z,101328.00
2022-10-18T04:01:26.588Z,101327.07
2022-10-18T04:02:38.155Z,101314.81
2022-10-18T04:03:47.929Z,101319.64
2022-10-18T04:06:14.676Z,101314.08
2022-10-18T04:07:24.444Z,101315.95
2022-10-18T04:09:47.867Z,101307.23
2022-10-18T04:10:57.262Z,101312.05
2022-10-18T04:12:06.874Z,101303.49
2022-10-18T04:13:16.211Z,101307.27
2022-10-18T04:15:42.229Z,101304.50
2022-10-18T04:18:09.921Z,101300.92
2022-10-18T04:19:26.290Z,101302.82
2022-10-18T04:20:41.080Z,101303.71
2022-10-18T04:21:49.685Z,101304.49
2022-10-18T04:24:17.511Z,101301.74
2022-10-18T04:26:43.159Z,101298.24
2022-10-18T04:27:52.682Z,101298.27
2022-10-18T04:29:02.046Z,101297.38
2022-10-18T04:31:32.339Z,101287.00
2022-10-18T04:33:57.424Z,101293.14
2022-10-18T04:36:23.563Z,101287.77
2022-10-18T04:37:34.695Z,101291.54
2022-10-18T04:40:01.672Z,101285.55
2022-10-18T04:42:25.283Z,101282.30
2022-10-18T04:44:50.529Z,101273.98
2022-10-18T04:46:01.194Z,101280.05
2022-10-18T04:47:11.288Z,101278.33
2022-10-18T04:48:20.688Z,101274.84
2022-10-18T04:50:50.051Z,101258.69
2022-10-18T04:53:17.181Z,101262.77
2022-10-18T04:54:27.936Z,101260.07
2022-10-18T04:56:50.939Z,101252.23
2022-10-18T04:59:16.804Z,101250.59
2022-10-18T05:01:42.736Z,101251.09
2022-10-18T05:02:58.218Z,101245.73
2022-10-18T05:04:07.765Z,101249.97
2022-10-18T05:05:21.482Z,101245.95
2022-10-18T05:06:30.296Z,101238.91
2022-10-18T05:07:39.017Z,101243.70
2022-10-18T05:08:48.352Z,101241.97
2022-10-18T05:09:57.613Z,101233.64
2022-10-18T05:11:06.708Z,101242.53
2022-10-18T05:12:16.386Z,101245.92
2022-10-18T05:13:25.797Z,101239.97
2022-10-18T05:14:34.481Z,101242.45
2022-10-18T05:15:43.349Z,101241.97
2022-10-18T05:18:07.194Z,101239.89
2022-10-18T05:20:53.013Z,101244.86
2022-10-18T05:22:04.040Z,101250.45
2022-10-18T05:23:13.985Z,101255.68
2022-10-18T05:24:25.513Z,101252.12
2022-10-18T05:25:33.740Z,101253.31
2022-10-18T05:27:58.017Z,101248.56
2022-10-18T05:29:11.338Z,101261.84
2022-10-18T05:30:23.230Z,101257.72
2022-10-18T05:31:39.223Z,101270.80
2022-10-18T05:34:05.280Z,101259.69
2022-10-18T05:35:14.503Z,101263.80
2022-10-18T05:36:26.281Z,101264.88
2022-10-18T05:37:35.372Z,101265.28
2022-10-18T05:38:46.061Z,101272.97
2022-10-18T05:39:55.562Z,101271.95
2022-10-18T05:42:40.216Z,101275.92
2022-10-18T05:43:52.950Z,101275.03
2022-10-18T05:46:18.038Z,101273.22
2022-10-18T05:48:44.140Z,101269.10
2022-10-18T05:51:07.888Z,101272.97
2022-10-18T05:52:25.103Z,101269.70
2022-10-18T05:53:37.576Z,101266.04
2022-10-18T05:54:50.904Z,101267.75
2022-10-18T05:57:17.848Z,101258.38
2022-10-18T05:58:26.630Z,101274.17
2022-10-18T05:59:35.390Z,101260.42
2022-10-18T06:00:45.593Z,101264.53
2022-10-18T06:01:55.055Z,101260.08
2022-10-18T06:03:04.083Z,101263.78
2022-10-18T06:16:12.455Z,101268.69
2022-10-18T06:17:22.588Z,101268.01
2022-10-18T06:18:31.254Z,101268.76
2022-10-18T06:19:40.346Z,101271.47
2022-10-18T06:20:49.693Z,101259.80
2022-10-18T06:21:59.365Z,101262.50
2022-10-18T06:23:08.983Z,101266.16
2022-10-18T06:25:35.985Z,101254.06
2022-10-18T06:26:44.732Z,101268.61
2022-10-18T06:27:53.441Z,101263.91
2022-10-18T06:29:02.434Z,101256.59
2022-10-18T06:31:26.856Z,101256.09
2022-10-18T06:32:35.464Z,101259.90
2022-10-18T06:33:46.532Z,101260.44
2022-10-18T06:36:19.903Z,101251.61
2022-10-18T06:38:47.263Z,101253.34
2022-10-18T06:41:17.888Z,101249.23
2022-10-18T06:43:42.133Z,101250.40
2022-10-18T06:44:51.811Z,101253.20
2022-10-18T06:47:19.165Z,101251.22
2022-10-18T06:48:28.178Z,101249.72
2022-10-18T06:49:37.806Z,101253.52
2022-10-18T06:50:58.565Z,101249.83
2022-10-18T06:52:07.683Z,101251.08
2022-10-18T06:53:16.263Z,101246.77
2022-10-18T06:54:25.052Z,101235.36
2022-10-18T06:55:34.365Z,101246.52
2022-10-18T06:56:44.752Z,101239.94
2022-10-18T06:57:53.835Z,101247.98
2022-10-18T06:59:04.591Z,101237.95
2022-10-18T07:01:30.064Z,101237.47
2022-10-18T07:02:41.027Z,101242.74
2022-10-18T07:03:51.234Z,101234.20
2022-10-18T07:06:18.727Z,101236.85
2022-10-18T07:07:32.165Z,101239.17
2022-10-18T07:09:57.476Z,101227.09
2022-10-18T07:12:23.048Z,101226.10
2022-10-18T07:14:48.814Z,101229.47
2022-10-18T07:16:04.738Z,101229.02
2022-10-18T07:17:13.447Z,101226.64
2022-10-18T07:18:22.322Z,101228.06
2022-10-18T07:19:31.952Z,101233.92
2022-10-18T07:20:42.780Z,101227.41
2022-10-18T07:21:51.105Z,101222.88
2022-10-18T07:24:15.604Z,101221.70
2022-10-18T07:26:40.045Z,101220.09
2022-10-18T07:29:09.916Z,101222.46
2022-10-18T07:30:19.744Z,101224.84
2022-10-18T07:31:29.238Z,101221.17
2022-10-18T07:32:42.144Z,101232.73
2022-10-18T07:33:51.217Z,101223.43
2022-10-18T07:35:01.674Z,101223.02
2022-10-18T07:36:12.175Z,101227.04
2022-10-18T07:38:36.987Z,101215.98
2022-10-18T07:39:46.626Z,101215.75
2022-10-18T07:42:15.681Z,101203.19
2022-10-18T07:44:40.296Z,101201.44
2022-10-18T07:47:12.577Z,101192.80
2022-10-18T07:49:42.658Z,101189.88
2022-10-18T07:50:53.243Z,101204.61
2022-10-18T07:52:04.284Z,101190.96
2022-10-18T07:54:30.746Z,101188.45
2022-10-18T07:55:39.341Z,101188.37
2022-10-18T07:56:48.348Z,101191.16
2022-10-18T07:57:59.152Z,101195.38
2022-10-18T07:59:09.705Z,101190.96
2022-10-18T08:01:35.937Z,101173.83
2022-10-18T08:02:45.641Z,101185.86
2022-10-18T08:03:55.699Z,101181.77
2022-10-18T08:06:22.469Z,101175.22
2022-10-18T08:07:33.326Z,101172.95
2022-10-18T08:08:43.298Z,101178.90
2022-10-18T08:11:11.587Z,101171.44
2022-10-18T08:12:21.427Z,101173.38
2022-10-18T08:13:31.692Z,101163.43
2022-10-18T08:16:04.490Z,101170.53
2022-10-18T08:17:14.162Z,101171.09
2022-10-18T08:18:23.915Z,101167.94
2022-10-18T08:20:48.599Z,101159.78
2022-10-18T08:23:12.699Z,101158.97
2022-10-18T08:24:22.791Z,101159.21
2022-10-18T08:26:50.932Z,101158.42
2022-10-18T08:28:02.391Z,101163.30
2022-10-18T08:29:22.557Z,101161.87
2022-10-18T08:30:23.649Z,101150.66
2022-10-18T08:31:33.322Z,101156.08
2022-10-18T08:33:59.349Z,101151.69
2022-10-18T08:35:09.408Z,101146.72
2022-10-18T08:36:18.996Z,101146.59
2022-10-18T08:37:27.638Z,101141.69
2022-10-18T08:38:40.254Z,101141.44
2022-10-18T08:39:48.876Z,101141.23
2022-10-18T08:43:03.396Z,101132.26
2022-10-18T08:45:43.169Z,101128.79
2022-10-18T08:47:04.748Z,101126.58
2022-10-18T08:49:45.563Z,101120.05
2022-10-18T08:50:54.043Z,101117.80
2022-10-18T08:52:04.426Z,101119.41
2022-10-18T08:56:18.364Z,101109.68
2022-10-18T08:57:28.063Z,101115.72
2022-10-18T08:59:53.469Z,101106.06
2022-10-18T09:02:46.174Z,101105.58
2022-10-18T09:04:04.928Z,101106.32
2022-10-18T09:05:27.060Z,101108.78
2022-10-18T09:08:23.874Z,101094.85
2022-10-18T09:12:53.608Z,101092.76
2022-10-18T09:15:36.788Z,101084.22
2022-10-18T09:16:49.403Z,101084.84
2022-10-18T09:18:15.191Z,101090.89
2022-10-18T09:19:47.000Z,101090.63
2022-10-18T09:21:00.879Z,101085.20
2022-10-18T09:23:43.761Z,101080.48
2022-10-18T09:25:16.219Z,101082.84
2022-10-18T09:26:26.642Z,101081.59
2022-10-18T09:29:15.441Z,101075.48
2022-10-18T09:31:54.159Z,101066.92
2022-10-18T09:33:21.679Z,101064.84
2022-10-18T09:34:51.223Z,101061.01
2022-10-18T09:37:20.940Z,101061.16
2022-10-18T09:38:31.549Z,101053.47
2022-10-18T09:42:26.891Z,101049.03
2022-10-18T09:45:26.313Z,101035.64
2022-10-18T09:51:12.277Z,101026.56
2022-10-18T09:52:27.795Z,101034.38
2022-10-18T09:53:58.129Z,101028.56
2022-10-18T09:56:48.332Z,101017.83
2022-10-18T09:59:29.228Z,101011.26
2022-10-18T10:00:49.962Z,101011.92
2022-10-18T10:01:59.690Z,101014.08
2022-10-18T10:03:15.843Z,101006.66
2022-10-18T10:05:39.470Z,100995.88
2022-10-18T10:08:10.064Z,100998.91
2022-10-18T10:09:39.003Z,100999.72
2022-10-18T10:10:48.997Z,100989.44
2022-10-18T10:11:59.578Z,100986.15
2022-10-18T10:14:45.231Z,100980.34
2022-10-18T10:17:30.404Z,100985.22
2022-10-18T10:20:04.269Z,100967.89
2022-10-18T10:22:40.065Z,100974.34
2022-10-18T10:23:58.463Z,100977.05
2022-10-18T10:26:34.005Z,100964.90
2022-10-18T10:27:46.565Z,100968.45
2022-10-18T10:28:56.346Z,100967.31
2022-10-18T10:31:37.145Z,100956.19
2022-10-18T10:32:49.159Z,100955.00
2022-10-18T10:34:05.367Z,100956.88
2022-10-18T10:36:49.553Z,100945.69
2022-10-18T10:37:59.821Z,100942.83
2022-10-18T10:39:18.580Z,100950.99
2022-10-18T10:41:57.406Z,100944.16
2022-10-18T10:43:33.021Z,100938.56
2022-10-18T10:44:33.747Z,100940.69
2022-10-18T10:45:59.757Z,100937.97
2022-10-18T10:48:27.004Z,100930.69
2022-10-18T10:49:42.759Z,100931.53
2022-10-18T10:50:55.631Z,100930.98
2022-10-18T10:52:15.451Z,100933.84
2022-10-18T10:53:37.503Z,100925.67
2022-10-18T10:54:51.558Z,100929.28
2022-10-18T10:56:00.861Z,100922.39
2022-10-18T10:57:13.259Z,100912.34
2022-10-18T10:58:23.245Z,100913.05
2022-10-18T11:00:55.410Z,100911.17
2022-10-18T11:02:31.631Z,100917.34
2022-10-18T11:03:47.357Z,100899.98
2022-10-18T11:06:33.248Z,100908.59
2022-10-18T11:09:05.603Z,100900.97
2022-10-18T11:10:18.616Z,100901.87
2022-10-18T11:13:03.064Z,100891.92
2022-10-18T11:15:49.134Z,100890.19
2022-10-18T11:18:36.311Z,100880.14
2022-10-18T11:24:25.900Z,100871.81
2022-10-18T11:28:47.188Z,100867.50
2022-10-18T11:31:47.822Z,100862.62
2022-10-18T11:34:41.517Z,100854.84
2022-10-18T11:37:32.352Z,100853.11
2022-10-18T11:40:26.595Z,100854.11
2022-10-18T11:43:24.743Z,100843.45
2022-10-18T11:46:15.285Z,100846.08
2022-10-18T11:49:20.530Z,100843.77
2022-10-18T11:53:38.048Z,100832.86
2022-10-18T11:56:46.004Z,100827.09
2022-10-18T11:58:13.809Z,100817.80
2022-10-18T12:00:49.275Z,100817.80
2022-10-18T12:02:21.173Z,100822.99
2022-10-18T12:05:24.794Z,100802.59
2022-10-18T12:07:54.401Z,100796.78
2022-10-18T12:10:59.932Z,100791.05
2022-10-18T12:12:19.158Z,100794.67
2022-10-18T12:14:55.370Z,100785.75
2022-10-18T12:16:08.090Z,100789.22
2022-10-18T12:18:58.537Z,100795.50
2022-10-18T12:21:38.561Z,100787.31
2022-10-18T12:25:37.132Z,100775.55
2022-10-18T12:26:49.309Z,100781.16
2022-10-18T12:28:35.725Z,100778.59
2022-10-18T12:31:23.117Z,100765.05
2022-10-18T12:34:00.366Z,100761.32
2022-10-18T12:38:08.857Z,100758.18
2022-10-18T12:40:40.971Z,100759.22
2022-10-18T12:41:54.081Z,100761.27
2022-10-18T12:44:34.530Z,100750.88
2022-10-18T12:47:23.964Z,100753.88
2022-10-18T12:48:39.488Z,100757.23
2022-10-18T12:50:01.672Z,100754.09
2022-10-18T12:51:16.994Z,100744.06
2022-10-18T12:54:02.571Z,100747.99
2022-10-18T12:55:19.481Z,100751.78
2022-10-18T12:56:32.032Z,100751.21
2022-10-18T12:59:19.237Z,100740.41
2022-10-18T13:01:56.661Z,100740.34
2022-10-18T13:04:37.881Z,100742.66
2022-10-18T13:07:21.395Z,100738.49
2022-10-18T13:10:15.609Z,100730.47
2022-10-18T13:11:29.114Z,100731.53
2022-10-18T13:12:51.530Z,100735.83
2022-10-18T13:15:37.300Z,100733.70
2022-10-18T13:16:49.731Z,100731.91
2022-10-18T13:19:27.141Z,100731.38
2022-10-18T13:22:35.266Z,100724.91
2022-10-18T13:25:37.310Z,100715.00
2022-10-18T13:28:31.030Z,100705.25
2022-10-18T13:29:57.134Z,100720.12
2022-10-18T13:31:27.642Z,100711.09
2022-10-18T13:32:59.371Z,100714.10
2022-10-18T13:35:57.765Z,100694.09
2022-10-18T13:38:37.867Z,100701.91
2022-10-18T13:41:09.534Z,100694.60
2022-10-18T13:43:58.167Z,100689.84
2022-10-18T13:46:56.043Z,100683.69
2022-10-18T13:49:58.504Z,100678.23
2022-10-18T13:53:11.742Z,100676.58
2022-10-18T13:54:43.694Z,100674.33
2022-10-18T13:57:43.411Z,100666.08
2022-10-18T13:59:13.637Z,100672.03
2022-10-18T14:00:23.684Z,100664.17
2022-10-18T14:03:58.308Z,100655.08
2022-10-18T14:06:51.489Z,100660.13
2022-10-18T14:09:45.283Z,100649.69
2022-10-18T14:12:31.189Z,100643.83
2022-10-18T14:15:09.668Z,100646.41
2022-10-18T14:18:02.094Z,100642.58
2022-10-18T14:19:31.093Z,100643.95
2022-10-18T14:22:06.073Z,100635.88
2022-10-18T14:24:34.292Z,100639.06
2022-10-18T14:27:24.492Z,100635.77
2022-10-18T14:28:55.149Z,100640.70
2022-10-18T14:29:44.573Z,100644.59
2022-10-18T14:32:31.548Z,100633.41
2022-10-18T14:33:47.939Z,100637.64
2022-10-18T14:36:21.841Z,100632.58
2022-10-18T14:37:37.280Z,100627.03
2022-10-18T14:38:56.816Z,100625.34
2022-10-18T14:41:29.397Z,100622.00
2022-10-18T14:45:38.521Z,100613.72
2022-10-18T14:48:18.662Z,100610.73
2022-10-18T14:49:28.823Z,100611.50
2022-10-18T14:50:38.040Z,100609.62
2022-10-18T14:51:50.817Z,100611.50
2022-10-18T14:54:32.414Z,100611.04
2022-10-18T14:55:43.054Z,100618.39
2022-10-18T14:56:54.209Z,100605.94
2022-10-18T14:59:29.551Z,100607.08
2022-10-18T15:00:40.440Z,100609.98
2022-10-18T15:03:12.893Z,100591.33
2022-10-18T15:07:18.151Z,100594.66
2022-10-18T15:09:48.122Z,100594.66
2022-10-18T15:10:58.006Z,100592.95
2022-10-18T15:12:08.951Z,100587.66
2022-10-18T15:13:19.165Z,100590.23
2022-10-18T15:15:45.028Z,100592.23
2022-10-18T15:18:16.296Z,100594.38
2022-10-18T15:19:35.878Z,100585.69
2022-10-18T15:20:45.706Z,100590.25
2022-10-18T15:23:29.515Z,100589.13
2022-10-18T15:27:26.112Z,100584.97
2022-10-18T15:30:11.129Z,100579.55
2022-10-18T15:32:54.048Z,100579.41
2022-10-18T15:34:20.503Z,100585.97
2022-10-18T15:36:52.154Z,100582.55
2022-10-18T15:38:32.047Z,100594.28
2022-10-18T15:39:40.966Z,100595.42
2022-10-18T15:42:06.282Z,100587.41
2022-10-18T15:46:06.575Z,100585.54
2022-10-18T15:47:20.926Z,100590.57
2022-10-18T15:49:58.711Z,100569.67
2022-10-18T15:53:56.130Z,100577.53
2022-10-18T15:56:48.029Z,100575.11
2022-10-18T15:59:36.632Z,100563.53
2022-10-18T16:02:02.299Z,100566.52
2022-10-18T16:03:11.065Z,100564.08
2022-10-18T16:05:45.625Z,100560.52
2022-10-18T16:08:24.361Z,100547.34
2022-10-18T16:10:48.991Z,100547.48
2022-10-18T16:11:58.033Z,100552.91
2022-10-18T16:14:23.193Z,100532.46
2022-10-18T16:15:34.173Z,100540.89
2022-10-18T16:16:44.310Z,100534.72
2022-10-18T16:17:54.047Z,100521.28
2022-10-18T16:19:03.787Z,100524.44
2022-10-18T16:21:38.925Z,100515.30
2022-10-18T16:24:05.781Z,100525.42
2022-10-18T16:26:30.604Z,100525.71
2022-10-18T16:28:57.678Z,100522.86
2022-10-18T16:31:31.379Z,100522.01
2022-10-18T16:33:56.781Z,100526.56
2022-10-18T16:36:28.694Z,100519.15
2022-10-18T16:38:55.616Z,100521.81
2022-10-18T16:40:26.000Z,100523.07
2022-10-18T16:41:35.760Z,100514.47
2022-10-18T16:42:44.863Z,100522.30
2022-10-18T16:45:09.764Z,100516.08
2022-10-18T16:47:37.458Z,100500.78
2022-10-18T16:48:47.891Z,100508.91
2022-10-18T16:49:57.579Z,100504.89
2022-10-18T16:52:22.523Z,100500.45
2022-10-18T16:53:32.026Z,100502.86
2022-10-18T16:56:00.771Z,100488.72
2022-10-18T16:58:29.557Z,100490.13
2022-10-18T16:59:39.572Z,100498.63
2022-10-18T17:02:07.159Z,100483.97
2022-10-18T17:04:32.653Z,100481.54
2022-10-18T17:06:58.455Z,100479.81
2022-10-18T17:09:30.078Z,100476.78
2022-10-18T17:11:53.891Z,100478.16
2022-10-18T17:13:02.959Z,100482.09
2022-10-18T17:15:27.953Z,100473.96
2022-10-18T17:16:39.299Z,100472.27
2022-10-18T17:17:50.357Z,100472.79
2022-10-18T17:20:21.428Z,100474.74
2022-10-18T17:22:48.483Z,100470.91
2022-10-18T17:25:22.056Z,100465.75
2022-10-18T17:27:46.779Z,100463.44
2022-10-18T17:30:17.455Z,100456.84
2022-10-18T17:32:45.257Z,100457.32
2022-10-18T17:33:58.848Z,100459.16
2022-10-18T17:36:25.115Z,100452.78
2022-10-18T17:37:34.500Z,100450.27
2022-10-18T17:40:03.228Z,100444.16
2022-10-18T17:41:13.717Z,100447.09
2022-10-18T17:42:24.062Z,100449.14
2022-10-18T17:44:51.897Z,100442.56
2022-10-18T17:46:00.539Z,100442.79
2022-10-18T17:48:25.190Z,100432.73
2022-10-18T17:49:33.880Z,100435.59
2022-10-18T17:52:04.528Z,100425.17
2022-10-18T17:54:27.851Z,100418.86
2022-10-18T17:56:53.909Z,100419.32
2022-10-18T17:58:02.421Z,100419.55
2022-10-18T18:00:28.436Z,100418.26
2022-10-18T18:01:38.164Z,100416.37
2022-10-18T18:04:21.385Z,100412.45
2022-10-18T18:06:48.689Z,100396.39
2022-10-18T18:08:02.764Z,100399.59
2022-10-18T18:10:29.257Z,100406.84
2022-10-18T18:11:40.446Z,100410.23
2022-10-18T18:12:50.038Z,100410.37
2022-10-18T18:13:59.560Z,100407.60
2022-10-18T18:16:28.182Z,100398.61
2022-10-18T18:18:56.596Z,100403.42
2022-10-18T18:21:22.360Z,100395.65
2022-10-18T18:23:47.767Z,100394.69
2022-10-18T18:26:14.584Z,100382.02
2022-10-18T18:27:23.291Z,100388.03
2022-10-18T18:29:46.903Z,100381.63
2022-10-18T18:32:12.872Z,100383.80
2022-10-18T18:34:37.545Z,100385.86
2022-10-18T18:35:57.302Z,100383.02
2022-10-18T18:38:23.308Z,100376.74
2022-10-18T18:40:50.434Z,100368.15
2022-10-18T18:41:59.520Z,100371.72
2022-10-18T18:43:22.818Z,100369.81
2022-10-18T18:45:37.664Z,100363.14
2022-10-18T18:46:48.567Z,100369.34
2022-10-18T18:49:13.765Z,100357.89
2022-10-18T18:51:40.167Z,100352.49
2022-10-18T18:52:49.281Z,100357.71
2022-10-18T18:53:58.467Z,100363.59
2022-10-18T18:56:26.168Z,100355.00
2022-10-18T18:58:51.143Z,100351.17
2022-10-18T19:01:24.807Z,100352.77
2022-10-18T19:03:50.581Z,100342.86
2022-10-18T19:05:00.575Z,100345.97
2022-10-18T19:07:29.601Z,100338.37
2022-10-18T19:09:54.477Z,100339.63
2022-10-18T19:11:08.113Z,100343.46
2022-10-18T19:13:34.214Z,100333.21
2022-10-18T19:14:43.798Z,100334.46
2022-10-18T19:15:52.798Z,100331.05
2022-10-18T19:17:04.347Z,100329.93
2022-10-18T19:19:30.213Z,100330.77
2022-10-18T19:22:01.139Z,100322.86
2022-10-18T19:23:12.760Z,100338.79
2022-10-18T19:24:23.703Z,100333.52
2022-10-18T19:28:05.953Z,100317.98
2022-10-18T19:30:34.049Z,100319.61
2022-10-18T19:33:03.551Z,100313.01
2022-10-18T19:34:13.358Z,100324.25
2022-10-18T19:36:40.747Z,100305.36
2022-10-18T19:37:49.281Z,100318.28
2022-10-18T19:40:13.615Z,100293.59
2022-10-18T19:42:38.801Z,100305.56
2022-10-18T19:43:48.677Z,100302.63
2022-10-18T19:44:57.595Z,100308.81
2022-10-18T19:47:22.239Z,100294.06
2022-10-18T19:48:32.329Z,100300.16
2022-10-18T19:51:07.063Z,100284.29
2022-10-18T19:53:33.178Z,100288.75
2022-10-18T19:54:42.378Z,100300.14
2022-10-18T19:57:20.521Z,100288.95
2022-10-18T19:59:44.172Z,100291.16
2022-10-18T20:02:14.428Z,100286.34
2022-10-18T20:04:40.626Z,100273.91
2022-10-18T20:07:16.960Z,100271.54
2022-10-18T20:08:27.807Z,100275.73
2022-10-18T20:10:52.745Z,100262.50
2022-10-18T20:12:02.034Z,100266.91
2022-10-18T20:14:26.313Z,100270.80
2022-10-18T20:16:49.767Z,100265.05
2022-10-18T20:17:59.546Z,100258.85
2022-10-18T20:19:09.642Z,100262.61
2022-10-18T20:20:18.848Z,100263.73
2022-10-18T20:22:47.550Z,100246.84
2022-10-18T20:23:58.027Z,100258.30
2022-10-18T20:26:24.885Z,100247.49
2022-10-18T20:27:34.103Z,100257.73
2022-10-18T20:28:43.996Z,100250.37
2022-10-18T20:29:53.674Z,100255.70
2022-10-18T20:32:21.673Z,100244.00
2022-10-18T20:33:31.469Z,100246.10
2022-10-18T20:34:41.310Z,100242.78
2022-10-18T20:37:06.928Z,100242.55
2022-10-18T20:39:30.440Z,100236.46
2022-10-18T20:41:54.143Z,100234.03
2022-10-18T20:44:19.841Z,100221.11
2022-10-18T20:45:28.165Z,100225.84
2022-10-18T20:47:52.946Z,100228.76
2022-10-18T20:50:41.521Z,100216.28
2022-10-18T20:53:05.276Z,100206.84
2022-10-18T20:54:16.063Z,100208.98
2022-10-18T20:56:40.292Z,100203.56
2022-10-18T20:57:50.328Z,100201.02
2022-10-18T20:58:59.717Z,100211.83
2022-10-18T21:01:30.257Z,100195.45
2022-10-18T21:02:39.893Z,100200.39
2022-10-18T21:03:50.609Z,100199.52
2022-10-18T21:06:18.963Z,100187.50
2022-10-18T21:08:44.996Z,100188.59
2022-10-18T21:09:54.661Z,100186.59
2022-10-18T21:12:19.638Z,100174.19
2022-10-18T21:13:28.213Z,100178.69
2022-10-18T21:14:36.829Z,100188.39
2022-10-18T21:17:04.686Z,100175.84
2022-10-18T21:19:29.272Z,100168.58
2022-10-18T21:20:38.804Z,100172.02
2022-10-18T21:21:51.378Z,100173.37
2022-10-18T21:23:00.419Z,100165.53
2022-10-18T21:24:10.549Z,100169.69
2022-10-18T21:25:19.317Z,100163.30
2022-10-18T21:26:29.045Z,100164.41
2022-10-18T21:27:39.764Z,100166.41
2022-10-18T21:30:08.232Z,100161.98
2022-10-18T21:32:35.577Z,100156.97
2022-10-18T21:35:01.861Z,100154.38
2022-10-18T21:37:27.439Z,100148.86
2022-10-18T21:38:37.981Z,100151.94
2022-10-18T21:39:47.562Z,100150.74
2022-10-18T21:40:57.294Z,100149.06
2022-10-18T21:43:21.881Z,100138.42
2022-10-18T21:45:46.787Z,100136.97
2022-10-18T21:48:11.357Z,100136.19
2022-10-18T21:50:39.535Z,100132.94
2022-10-18T21:51:49.217Z,100134.45
2022-10-18T21:52:58.352Z,100129.18
2022-10-18T21:55:25.169Z,100120.75
2022-10-18T21:57:50.698Z,100115.76
2022-10-18T22:00:17.803Z,100107.38
2022-10-18T22:02:54.018Z,100108.27
2022-10-18T22:05:22.848Z,100102.42
2022-10-18T22:07:43.942Z,100110.95
2022-10-18T22:08:56.616Z,100105.98
2022-10-18T22:11:24.929Z,100095.78
2022-10-18T22:13:53.334Z,100077.23
2022-10-18T22:16:18.663Z,100081.59
2022-10-18T22:17:29.266Z,100077.84
2022-10-18T22:18:38.376Z,100081.92